DAL4003 KMDW-KDTW
Flight info
| Callsign | DAL4003 |
|---|---|
| Flight time | 0h 46m |
| Altitude | 27000 |
| Route | LEWKE GIJ HOSSA VCTRZ2 |
| Aircraft | B738/M-SDE2E3FGHIRWXY/LB1 |
Departure
| Time | 2026-05-07 21:28 |
|---|---|
| Airport | Chicago Midway International Airport (KMDW) |
Arrival
| Time | 2026-05-07 22:14 |
|---|---|
| Airport | Detroit Metropolitan Wayne County Airport (KDTW) |
| Time | Latitude | Longitude | Altitude | Speed | Heading |
|---|---|---|---|---|---|
| 2026-05-07 21:04 | 41.78692 | -87.74437 | 613 ft | 0 kts | 306° |
| 2026-05-07 21:20 | 41.78689 | -87.74433 | 613 ft | 2 kts | 306° |
| 2026-05-07 21:20 | 41.78683 | -87.74422 | 613 ft | 1 kts | 307° |
| 2026-05-07 21:20 | 41.78676 | -87.74405 | 613 ft | 2 kts | 281° |
| 2026-05-07 21:21 | 41.78675 | -87.74385 | 613 ft | 2 kts | 258° |
| 2026-05-07 21:21 | 41.78681 | -87.74366 | 613 ft | 2 kts | 234° |
| 2026-05-07 21:21 | 41.78686 | -87.74358 | 613 ft | 1 kts | 221° |
| 2026-05-07 21:21 | 41.78690 | -87.74353 | 613 ft | 0 kts | 222° |
| 2026-05-07 21:23 | 41.78688 | -87.74356 | 613 ft | 2 kts | 222° |
| 2026-05-07 21:23 | 41.78657 | -87.74394 | 613 ft | 9 kts | 222° |
| 2026-05-07 21:23 | 41.78591 | -87.74475 | 613 ft | 14 kts | 218° |
| 2026-05-07 21:24 | 41.78523 | -87.74559 | 613 ft | 12 kts | 225° |
| 2026-05-07 21:24 | 41.78522 | -87.74653 | 613 ft | 11 kts | 294° |
| 2026-05-07 21:24 | 41.78572 | -87.74738 | 613 ft | 10 kts | 313° |
| 2026-05-07 21:24 | 41.78630 | -87.74780 | 613 ft | 9 kts | 351° |
| 2026-05-07 21:25 | 41.78705 | -87.74767 | 613 ft | 11 kts | 36° |
| 2026-05-07 21:25 | 41.78772 | -87.74688 | 613 ft | 15 kts | 44° |
| 2026-05-07 21:25 | 41.78855 | -87.74584 | 613 ft | 18 kts | 40° |
| 2026-05-07 21:25 | 41.78944 | -87.74470 | 613 ft | 15 kts | 45° |
| 2026-05-07 21:26 | 41.79012 | -87.74382 | 613 ft | 10 kts | 42° |
| 2026-05-07 21:26 | 41.79050 | -87.74340 | 613 ft | 5 kts | 33° |
| 2026-05-07 21:26 | 41.79077 | -87.74341 | 613 ft | 3 kts | 310° |
| 2026-05-07 21:26 | 41.79094 | -87.74391 | 613 ft | 6 kts | 278° |
| 2026-05-07 21:27 | 41.79063 | -87.74478 | 613 ft | 12 kts | 223° |
| 2026-05-07 21:27 | 41.79050 | -87.74495 | 613 ft | 6 kts | 223° |
| 2026-05-07 21:27 | 41.78810 | -87.74800 | 613 ft | 88 kts | 224° |
| 2026-05-07 21:27 | 41.78189 | -87.75583 | 655 ft | 150 kts | 227° |
| 2026-05-07 21:28 | 41.77398 | -87.76591 | 1323 ft | 166 kts | 225° |
| 2026-05-07 21:28 | 41.76384 | -87.77316 | 2188 ft | 185 kts | 193° |
| 2026-05-07 21:28 | 41.75304 | -87.77106 | 2562 ft | 215 kts | 159° |
| 2026-05-07 21:28 | 41.74184 | -87.75639 | 3142 ft | 242 kts | 118° |
| 2026-05-07 21:29 | 41.73792 | -87.73414 | 3782 ft | 259 kts | 88° |
| 2026-05-07 21:29 | 41.74281 | -87.71055 | 4376 ft | 273 kts | 57° |
| 2026-05-07 21:29 | 41.75441 | -87.69032 | 5180 ft | 277 kts | 43° |
| 2026-05-07 21:29 | 41.76779 | -87.67168 | 6033 ft | 283 kts | 44° |
| 2026-05-07 21:30 | 41.78004 | -87.65104 | 6913 ft | 291 kts | 57° |
| 2026-05-07 21:30 | 41.78558 | -87.62499 | 7788 ft | 299 kts | 88° |
| 2026-05-07 21:30 | 41.78376 | -87.59739 | 8671 ft | 302 kts | 99° |
| 2026-05-07 21:30 | 41.78031 | -87.56968 | 9488 ft | 306 kts | 98° |
| 2026-05-07 21:31 | 41.77769 | -87.54126 | 10290 ft | 311 kts | 94° |
| 2026-05-07 21:31 | 41.77611 | -87.51243 | 11117 ft | 315 kts | 92° |
| 2026-05-07 21:31 | 41.77513 | -87.48304 | 11888 ft | 320 kts | 91° |
| 2026-05-07 21:31 | 41.77434 | -87.45333 | 12688 ft | 323 kts | 90° |
| 2026-05-07 21:32 | 41.77352 | -87.42329 | 13461 ft | 327 kts | 91° |
| 2026-05-07 21:32 | 41.77262 | -87.39282 | 14197 ft | 332 kts | 90° |
| 2026-05-07 21:32 | 41.77164 | -87.36193 | 14930 ft | 336 kts | 90° |
| 2026-05-07 21:32 | 41.77067 | -87.33056 | 15660 ft | 341 kts | 91° |
| 2026-05-07 21:33 | 41.76967 | -87.29889 | 16421 ft | 343 kts | 90° |
| 2026-05-07 21:33 | 41.76866 | -87.26686 | 17073 ft | 349 kts | 91° |
| 2026-05-07 21:33 | 41.76760 | -87.23440 | 17746 ft | 352 kts | 91° |
| 2026-05-07 21:33 | 41.76651 | -87.20172 | 18384 ft | 356 kts | 90° |
| 2026-05-07 21:34 | 41.76542 | -87.16870 | 19062 ft | 358 kts | 90° |
| 2026-05-07 21:34 | 41.76433 | -87.13531 | 19604 ft | 364 kts | 90° |
| 2026-05-07 21:34 | 41.76322 | -87.10133 | 20167 ft | 368 kts | 89° |
| 2026-05-07 21:34 | 41.76210 | -87.06707 | 20804 ft | 370 kts | 89° |
| 2026-05-07 21:35 | 41.76145 | -87.03259 | 21290 ft | 375 kts | 87° |
| 2026-05-07 21:35 | 41.76169 | -86.99755 | 21778 ft | 379 kts | 85° |
| 2026-05-07 21:35 | 41.76242 | -86.96222 | 22276 ft | 382 kts | 84° |
| 2026-05-07 21:35 | 41.76321 | -86.92628 | 22724 ft | 388 kts | 84° |
| 2026-05-07 21:36 | 41.76384 | -86.89009 | 23298 ft | 390 kts | 85° |
| 2026-05-07 21:36 | 41.76430 | -86.85379 | 23810 ft | 393 kts | 84° |
| 2026-05-07 21:36 | 41.76472 | -86.81685 | 24282 ft | 397 kts | 85° |
| 2026-05-07 21:36 | 41.76511 | -86.77974 | 24671 ft | 403 kts | 85° |
| 2026-05-07 21:37 | 41.76549 | -86.74199 | 24963 ft | 411 kts | 85° |
| 2026-05-07 21:37 | 41.76587 | -86.70334 | 25188 ft | 421 kts | 85° |
| 2026-05-07 21:37 | 41.76623 | -86.66402 | 25650 ft | 424 kts | 86° |
| 2026-05-07 21:37 | 41.76652 | -86.62502 | 26237 ft | 421 kts | 85° |
| 2026-05-07 21:38 | 41.76681 | -86.58560 | 26564 ft | 426 kts | 86° |
| 2026-05-07 21:38 | 41.76711 | -86.54597 | 26875 ft | 431 kts | 85° |
| 2026-05-07 21:38 | 41.76746 | -86.50559 | 26961 ft | 437 kts | 86° |
| 2026-05-07 21:38 | 41.76777 | -86.46510 | 26956 ft | 434 kts | 86° |
| 2026-05-07 21:39 | 41.76801 | -86.42523 | 26916 ft | 427 kts | 86° |
| 2026-05-07 21:39 | 41.76821 | -86.38580 | 26948 ft | 423 kts | 85° |
| 2026-05-07 21:39 | 41.76898 | -86.34649 | 26946 ft | 424 kts | 83° |
| 2026-05-07 21:39 | 41.77175 | -86.30733 | 26934 ft | 423 kts | 76° |
| 2026-05-07 21:40 | 41.77717 | -86.26881 | 26989 ft | 422 kts | 72° |
| 2026-05-07 21:40 | 41.78409 | -86.23086 | 26929 ft | 419 kts | 69° |
| 2026-05-07 21:40 | 41.79162 | -86.19348 | 26961 ft | 416 kts | 68° |
| 2026-05-07 21:40 | 41.79939 | -86.15626 | 26985 ft | 416 kts | 69° |
| 2026-05-07 21:41 | 41.80711 | -86.11903 | 26913 ft | 416 kts | 69° |
| 2026-05-07 21:41 | 41.81468 | -86.08177 | 26973 ft | 417 kts | 69° |
| 2026-05-07 21:41 | 41.82218 | -86.04427 | 26949 ft | 419 kts | 69° |
| 2026-05-07 21:41 | 41.82958 | -86.00669 | 26979 ft | 417 kts | 69° |
| 2026-05-07 21:42 | 41.83685 | -85.96926 | 26972 ft | 415 kts | 69° |
| 2026-05-07 21:42 | 41.84409 | -85.93186 | 26989 ft | 415 kts | 70° |
| 2026-05-07 21:42 | 41.85135 | -85.89442 | 26916 ft | 415 kts | 70° |
| 2026-05-07 21:42 | 41.85859 | -85.85702 | 26984 ft | 417 kts | 69° |
| 2026-05-07 21:43 | 41.86583 | -85.81946 | 26935 ft | 417 kts | 70° |
| 2026-05-07 21:43 | 41.87301 | -85.78203 | 26948 ft | 415 kts | 70° |
| 2026-05-07 21:43 | 41.88017 | -85.74458 | 26943 ft | 415 kts | 70° |
| 2026-05-07 21:43 | 41.88731 | -85.70715 | 26957 ft | 415 kts | 70° |
| 2026-05-07 21:44 | 41.89447 | -85.66968 | 26940 ft | 415 kts | 70° |
| 2026-05-07 21:44 | 41.90159 | -85.63240 | 26947 ft | 414 kts | 70° |
| 2026-05-07 21:44 | 41.90875 | -85.59491 | 26958 ft | 417 kts | 70° |
| 2026-05-07 21:44 | 41.91590 | -85.55738 | 26938 ft | 414 kts | 70° |
| 2026-05-07 21:45 | 41.92297 | -85.52007 | 26943 ft | 414 kts | 70° |
| 2026-05-07 21:45 | 41.93003 | -85.48269 | 26948 ft | 414 kts | 70° |
| 2026-05-07 21:45 | 41.93709 | -85.44526 | 26911 ft | 419 kts | 70° |
| 2026-05-07 21:45 | 41.94448 | -85.40647 | 26703 ft | 439 kts | 70° |
| 2026-05-07 21:46 | 41.95221 | -85.36597 | 26487 ft | 456 kts | 71° |
| 2026-05-07 21:46 | 41.96007 | -85.32428 | 26255 ft | 462 kts | 71° |
| 2026-05-07 21:46 | 41.96781 | -85.28274 | 25996 ft | 457 kts | 72° |
| 2026-05-07 21:46 | 41.97538 | -85.24166 | 25572 ft | 451 kts | 72° |
| 2026-05-07 21:47 | 41.98279 | -85.20125 | 25008 ft | 443 kts | 71° |
| 2026-05-07 21:47 | 41.99009 | -85.16153 | 24422 ft | 436 kts | 71° |
| 2026-05-07 21:47 | 41.99717 | -85.12250 | 23739 ft | 429 kts | 72° |
| 2026-05-07 21:47 | 42.00294 | -85.08358 | 23139 ft | 424 kts | 77° |
| 2026-05-07 21:48 | 42.00574 | -85.04451 | 22516 ft | 420 kts | 85° |
| 2026-05-07 21:48 | 42.00558 | -85.00565 | 21929 ft | 415 kts | 90° |
| 2026-05-07 21:48 | 42.00391 | -84.96725 | 21354 ft | 409 kts | 92° |
| 2026-05-07 21:48 | 42.00164 | -84.92931 | 20757 ft | 404 kts | 93° |
| 2026-05-07 21:49 | 41.99925 | -84.89214 | 20219 ft | 401 kts | 94° |
| 2026-05-07 21:49 | 41.99688 | -84.85463 | 19619 ft | 409 kts | 94° |
| 2026-05-07 21:49 | 41.99456 | -84.81631 | 19048 ft | 414 kts | 93° |
| 2026-05-07 21:49 | 41.99234 | -84.77810 | 18920 ft | 407 kts | 93° |
| 2026-05-07 21:50 | 41.99022 | -84.74017 | 18985 ft | 411 kts | 93° |
| 2026-05-07 21:50 | 41.98814 | -84.70166 | 18931 ft | 416 kts | 92° |
| 2026-05-07 21:50 | 41.98608 | -84.66314 | 18928 ft | 413 kts | 92° |
| 2026-05-07 21:50 | 41.98404 | -84.62477 | 18950 ft | 412 kts | 92° |
| 2026-05-07 21:51 | 41.98200 | -84.58628 | 18955 ft | 413 kts | 92° |
| 2026-05-07 21:51 | 41.97995 | -84.54791 | 18952 ft | 413 kts | 92° |
| 2026-05-07 21:51 | 41.97788 | -84.50963 | 18955 ft | 412 kts | 92° |
| 2026-05-07 21:51 | 41.97578 | -84.47142 | 18951 ft | 409 kts | 92° |
| 2026-05-07 21:52 | 41.97367 | -84.43338 | 18969 ft | 410 kts | 92° |
| 2026-05-07 21:52 | 41.97156 | -84.39525 | 18961 ft | 411 kts | 92° |
| 2026-05-07 21:52 | 41.96941 | -84.35689 | 18929 ft | 415 kts | 92° |
| 2026-05-07 21:52 | 41.96760 | -84.31845 | 18939 ft | 410 kts | 90° |
| 2026-05-07 21:53 | 41.96768 | -84.28106 | 18952 ft | 407 kts | 85° |
| 2026-05-07 21:53 | 41.96860 | -84.26209 | 18939 ft | 406 kts | 82° |
| 2026-05-07 21:53 | 41.97156 | -84.22442 | 18935 ft | 406 kts | 79° |
| 2026-05-07 21:53 | 41.97534 | -84.18688 | 18914 ft | 406 kts | 79° |
| 2026-05-07 21:54 | 41.97934 | -84.14923 | 18674 ft | 408 kts | 78° |
| 2026-05-07 21:54 | 41.98324 | -84.11184 | 18272 ft | 402 kts | 79° |
| 2026-05-07 21:54 | 41.98749 | -84.07531 | 17775 ft | 391 kts | 75° |
| 2026-05-07 21:54 | 41.99352 | -84.04036 | 17276 ft | 380 kts | 70° |
| 2026-05-07 21:55 | 42.00078 | -84.00669 | 16725 ft | 372 kts | 68° |
| 2026-05-07 21:55 | 42.00852 | -83.97383 | 16175 ft | 365 kts | 67° |
| 2026-05-07 21:55 | 42.01631 | -83.94171 | 15650 ft | 359 kts | 66° |
| 2026-05-07 21:55 | 42.02558 | -83.91114 | 15124 ft | 351 kts | 56° |
| 2026-05-07 21:56 | 42.03812 | -83.88340 | 14912 ft | 348 kts | 47° |
| 2026-05-07 21:56 | 42.05320 | -83.85729 | 14383 ft | 360 kts | 43° |
| 2026-05-07 21:56 | 42.06969 | -83.83196 | 13814 ft | 358 kts | 41° |
| 2026-05-07 21:56 | 42.08620 | -83.80758 | 13290 ft | 349 kts | 40° |
| 2026-05-07 21:57 | 42.10238 | -83.78383 | 12777 ft | 341 kts | 41° |
| 2026-05-07 21:57 | 42.11812 | -83.76052 | 12334 ft | 332 kts | 41° |
| 2026-05-07 21:57 | 42.13282 | -83.73730 | 12114 ft | 319 kts | 47° |
| 2026-05-07 21:57 | 42.14377 | -83.71194 | 11998 ft | 309 kts | 66° |
| 2026-05-07 21:58 | 42.14761 | -83.68437 | 11977 ft | 292 kts | 83° |
| 2026-05-07 21:58 | 42.14819 | -83.65800 | 11977 ft | 272 kts | 86° |
| 2026-05-07 21:58 | 42.14835 | -83.63314 | 11997 ft | 261 kts | 85° |
| 2026-05-07 21:58 | 42.14884 | -83.60887 | 11984 ft | 260 kts | 84° |
| 2026-05-07 21:59 | 42.14974 | -83.58443 | 11985 ft | 263 kts | 82° |
| 2026-05-07 21:59 | 42.15087 | -83.55982 | 11985 ft | 263 kts | 82° |
| 2026-05-07 21:59 | 42.15202 | -83.53529 | 11983 ft | 262 kts | 82° |
| 2026-05-07 21:59 | 42.15316 | -83.51077 | 11982 ft | 262 kts | 82° |
| 2026-05-07 22:00 | 42.15428 | -83.48620 | 11987 ft | 262 kts | 82° |
| 2026-05-07 22:00 | 42.15538 | -83.46174 | 11979 ft | 262 kts | 82° |
| 2026-05-07 22:00 | 42.15650 | -83.43731 | 11980 ft | 262 kts | 82° |
| 2026-05-07 22:00 | 42.15765 | -83.41276 | 11982 ft | 263 kts | 82° |
| 2026-05-07 22:01 | 42.15879 | -83.38820 | 11982 ft | 262 kts | 82° |
| 2026-05-07 22:01 | 42.15989 | -83.36371 | 11982 ft | 262 kts | 82° |
| 2026-05-07 22:01 | 42.16097 | -83.33918 | 11982 ft | 263 kts | 82° |
| 2026-05-07 22:01 | 42.16206 | -83.31456 | 11986 ft | 263 kts | 83° |
| 2026-05-07 22:02 | 42.16314 | -83.29002 | 11980 ft | 262 kts | 83° |
| 2026-05-07 22:02 | 42.16446 | -83.26559 | 11989 ft | 260 kts | 78° |
| 2026-05-07 22:02 | 42.16897 | -83.24240 | 11978 ft | 252 kts | 54° |
| 2026-05-07 22:02 | 42.17973 | -83.22527 | 11985 ft | 234 kts | 25° |
| 2026-05-07 22:03 | 42.19353 | -83.21430 | 11977 ft | 229 kts | 19° |
| 2026-05-07 22:03 | 42.20742 | -83.20384 | 11977 ft | 229 kts | 19° |
| 2026-05-07 22:03 | 42.22114 | -83.19298 | 11983 ft | 229 kts | 20° |
| 2026-05-07 22:03 | 42.23456 | -83.18115 | 11966 ft | 231 kts | 26° |
| 2026-05-07 22:04 | 42.24734 | -83.16812 | 11749 ft | 230 kts | 28° |
| 2026-05-07 22:04 | 42.25999 | -83.15489 | 11379 ft | 232 kts | 28° |
| 2026-05-07 22:04 | 42.27270 | -83.14171 | 11112 ft | 227 kts | 28° |
| 2026-05-07 22:04 | 42.28487 | -83.12898 | 10985 ft | 218 kts | 28° |
| 2026-05-07 22:05 | 42.29684 | -83.11642 | 10627 ft | 220 kts | 27° |
| 2026-05-07 22:05 | 42.30903 | -83.10378 | 10213 ft | 222 kts | 28° |
| 2026-05-07 22:05 | 42.32196 | -83.09335 | 9795 ft | 211 kts | 9° |
| 2026-05-07 22:05 | 42.33579 | -83.08874 | 9423 ft | 201 kts | 1° |
| 2026-05-07 22:06 | 42.34949 | -83.08556 | 8998 ft | 199 kts | 0° |
| 2026-05-07 22:06 | 42.36309 | -83.08249 | 8590 ft | 198 kts | 0° |
| 2026-05-07 22:06 | 42.37657 | -83.07952 | 8183 ft | 196 kts | 1° |
| 2026-05-07 22:06 | 42.39000 | -83.07668 | 7774 ft | 195 kts | 1° |
| 2026-05-07 22:07 | 42.40322 | -83.07606 | 7369 ft | 187 kts | 345° |
| 2026-05-07 22:07 | 42.41584 | -83.07927 | 6968 ft | 184 kts | 339° |
| 2026-05-07 22:07 | 42.42690 | -83.08663 | 6562 ft | 175 kts | 313° |
| 2026-05-07 22:07 | 42.43309 | -83.10012 | 6163 ft | 170 kts | 284° |
| 2026-05-07 22:08 | 42.43467 | -83.11589 | 5770 ft | 171 kts | 272° |
| 2026-05-07 22:08 | 42.43335 | -83.13183 | 5371 ft | 172 kts | 262° |
| 2026-05-07 22:08 | 42.43061 | -83.14762 | 4955 ft | 174 kts | 259° |
| 2026-05-07 22:08 | 42.42623 | -83.16286 | 4574 ft | 175 kts | 248° |
| 2026-05-07 22:09 | 42.42053 | -83.17742 | 4164 ft | 176 kts | 246° |
| 2026-05-07 22:09 | 42.41318 | -83.19070 | 3757 ft | 182 kts | 225° |
| 2026-05-07 22:09 | 42.40250 | -83.20014 | 3365 ft | 185 kts | 213° |
| 2026-05-07 22:09 | 42.39094 | -83.20706 | 3023 ft | 179 kts | 208° |
| 2026-05-07 22:10 | 42.38001 | -83.21284 | 2908 ft | 159 kts | 209° |
| 2026-05-07 22:10 | 42.36997 | -83.21803 | 2971 ft | 154 kts | 209° |
| 2026-05-07 22:10 | 42.35943 | -83.22363 | 3014 ft | 169 kts | 208° |
| 2026-05-07 22:10 | 42.34832 | -83.22955 | 2983 ft | 172 kts | 209° |
| 2026-05-07 22:11 | 42.33722 | -83.23551 | 2976 ft | 170 kts | 209° |
| 2026-05-07 22:11 | 42.32637 | -83.24192 | 2975 ft | 169 kts | 218° |
| 2026-05-07 22:11 | 42.31670 | -83.25068 | 2973 ft | 168 kts | 220° |
| 2026-05-07 22:11 | 42.30698 | -83.25942 | 2855 ft | 162 kts | 223° |
| 2026-05-07 22:12 | 42.29828 | -83.26858 | 2544 ft | 155 kts | 226° |
| 2026-05-07 22:12 | 42.29021 | -83.27734 | 2269 ft | 146 kts | 225° |
| 2026-05-07 22:12 | 42.28173 | -83.28482 | 2019 ft | 145 kts | 219° |
| 2026-05-07 22:12 | 42.27265 | -83.29197 | 1918 ft | 154 kts | 218° |
| 2026-05-07 22:13 | 42.26356 | -83.29910 | 1752 ft | 153 kts | 218° |
| 2026-05-07 22:13 | 42.25464 | -83.30649 | 1622 ft | 146 kts | 220° |
| 2026-05-07 22:13 | 42.24613 | -83.31369 | 1383 ft | 146 kts | 220° |
| 2026-05-07 22:13 | 42.23748 | -83.32052 | 1135 ft | 142 kts | 216° |
| 2026-05-07 22:14 | 42.22913 | -83.32683 | 898 ft | 138 kts | 213° |
| 2026-05-07 22:14 | 42.22080 | -83.33310 | 680 ft | 135 kts | 215° |
| 2026-05-07 22:14 | 42.21304 | -83.33898 | 636 ft | 101 kts | 209° |
| 2026-05-07 22:14 | 42.20872 | -83.34216 | 636 ft | 47 kts | 208° |
| 2026-05-07 22:15 | 42.20638 | -83.34438 | 636 ft | 29 kts | 230° |
| 2026-05-07 22:15 | 42.20581 | -83.34620 | 636 ft | 15 kts | 306° |
| 2026-05-07 22:15 | 42.20664 | -83.34616 | 636 ft | 11 kts | 23° |
| 2026-05-07 22:15 | 42.20730 | -83.34572 | 636 ft | 9 kts | 29° |
| 2026-05-07 22:16 | 42.20785 | -83.34531 | 636 ft | 8 kts | 26° |
| 2026-05-07 22:16 | 42.20848 | -83.34488 | 636 ft | 10 kts | 27° |
| 2026-05-07 22:16 | 42.20907 | -83.34448 | 636 ft | 8 kts | 28° |
| 2026-05-07 22:16 | 42.20963 | -83.34409 | 636 ft | 14 kts | 24° |
| 2026-05-07 22:17 | 42.21053 | -83.34466 | 636 ft | 15 kts | 296° |
| 2026-05-07 22:17 | 42.21102 | -83.34593 | 636 ft | 15 kts | 300° |
| 2026-05-07 22:17 | 42.21159 | -83.34728 | 637 ft | 15 kts | 301° |
| 2026-05-07 22:17 | 42.21208 | -83.34842 | 639 ft | 13 kts | 301° |
| 2026-05-07 22:18 | 42.21262 | -83.34927 | 639 ft | 11 kts | 343° |
| 2026-05-07 22:18 | 42.21366 | -83.34980 | 639 ft | 12 kts | 327° |
| 2026-05-07 22:18 | 42.21466 | -83.35064 | 639 ft | 20 kts | 328° |
| 2026-05-07 22:19 | 42.21489 | -83.35147 | 639 ft | 8 kts | 224° |
| 2026-05-07 22:19 | 42.21418 | -83.35217 | 639 ft | 17 kts | 244° |
| 2026-05-07 22:19 | 42.21432 | -83.35293 | 639 ft | 2 kts | 297° |
| 2026-05-07 22:19 | 42.21435 | -83.35298 | 639 ft | 0 kts | 299° |